createdAt,value
2022-08-22T00:03:17.493Z,50.21
2022-08-22T00:06:01.932Z,50.16
2022-08-22T00:09:13.013Z,49.95
2022-08-22T00:12:37.997Z,50.34
2022-08-22T00:15:53.460Z,50.12
2022-08-22T00:19:11.095Z,50.15
2022-08-22T00:22:25.511Z,50.17
2022-08-22T00:25:46.920Z,49.63
2022-08-22T00:29:00.889Z,49.92
2022-08-22T00:32:28.200Z,50.28
2022-08-22T00:35:53.753Z,50.87
2022-08-22T00:39:04.144Z,50.86
2022-08-22T00:42:56.007Z,50.54
2022-08-22T00:46:28.955Z,50.66
2022-08-22T00:50:04.325Z,50.83
2022-08-22T00:53:57.199Z,50.83
2022-08-22T00:57:53.710Z,50.95
2022-08-22T01:01:04.248Z,51.03
2022-08-22T01:04:27.891Z,51.17
2022-08-22T01:08:24.695Z,50.76
2022-08-22T01:11:59.624Z,50.74
2022-08-22T01:15:20.314Z,50.95
2022-08-22T01:19:14.927Z,51.06
2022-08-22T01:22:49.037Z,51.25
2022-08-22T01:26:32.032Z,51.00
2022-08-22T01:29:58.518Z,51.47
2022-08-22T01:33:31.043Z,51.15
2022-08-22T01:37:04.086Z,51.03
2022-08-22T01:40:53.964Z,51.27
2022-08-22T01:44:23.540Z,50.85
2022-08-22T01:47:40.821Z,50.86
2022-08-22T01:51:13.063Z,50.97
2022-08-22T01:54:46.047Z,51.60
2022-08-22T01:58:12.631Z,51.66
2022-08-22T02:01:46.364Z,51.80
2022-08-22T02:04:57.400Z,51.49
2022-08-22T02:08:18.359Z,51.18
2022-08-22T02:11:46.203Z,51.01
2022-08-22T02:14:58.705Z,51.01
2022-08-22T02:18:25.668Z,50.71
2022-08-22T02:21:38.267Z,50.65
2022-08-22T02:25:23.993Z,50.62
2022-08-22T02:28:56.887Z,50.48
2022-08-22T02:32:15.265Z,50.35
2022-08-22T02:35:37.428Z,50.03
2022-08-22T02:39:11.254Z,50.17
2022-08-22T02:42:40.747Z,50.07
2022-08-22T02:45:55.538Z,49.96
2022-08-22T02:49:27.356Z,50.61
2022-08-22T02:52:58.932Z,50.28
2022-08-22T02:56:33.775Z,50.72
2022-08-22T03:00:31.484Z,50.25
2022-08-22T03:03:32.822Z,50.44
2022-08-22T03:06:54.587Z,50.34
2022-08-22T03:10:07.270Z,50.91
2022-08-22T03:13:29.027Z,50.63
2022-08-22T03:17:05.528Z,50.49
2022-08-22T03:20:16.738Z,50.66
2022-08-22T03:23:53.796Z,50.79
2022-08-22T03:27:32.355Z,50.04
2022-08-22T03:30:51.793Z,50.67
2022-08-22T03:33:58.500Z,50.77
2022-08-22T03:37:32.464Z,50.47
2022-08-22T03:41:08.824Z,50.44
2022-08-22T03:44:42.735Z,51.35
2022-08-22T03:48:29.686Z,51.04
2022-08-22T03:51:56.699Z,50.87
2022-08-22T03:55:36.485Z,51.62
2022-08-22T03:59:25.373Z,51.58
2022-08-22T04:03:05.488Z,51.52
2022-08-22T04:06:29.922Z,51.75
2022-08-22T04:10:13.584Z,51.57
2022-08-22T04:13:55.753Z,51.58
2022-08-22T04:17:21.358Z,51.17
2022-08-22T04:21:06.260Z,51.13
2022-08-22T04:24:52.083Z,51.00
2022-08-22T04:28:29.778Z,51.15
2022-08-22T04:31:45.474Z,50.68
2022-08-22T04:34:55.540Z,50.56
2022-08-22T04:38:38.452Z,50.87
2022-08-22T04:42:31.783Z,49.66
2022-08-22T04:45:36.703Z,50.13
2022-08-22T04:49:04.989Z,49.90
2022-08-22T04:52:20.442Z,48.86
2022-08-22T04:56:07.081Z,49.24
2022-08-22T04:59:23.709Z,48.28
2022-08-22T05:02:35.952Z,48.83
2022-08-22T05:05:47.073Z,48.82
2022-08-22T05:08:54.019Z,48.74
2022-08-22T05:11:59.882Z,48.72
2022-08-22T05:15:09.797Z,48.26
2022-08-22T05:18:25.543Z,48.44
2022-08-22T05:21:32.262Z,48.73
2022-08-22T05:24:46.855Z,48.78
2022-08-22T05:28:01.984Z,48.54
2022-08-22T05:31:07.308Z,48.08
2022-08-22T05:34:18.516Z,48.63
2022-08-22T05:37:36.998Z,48.73
2022-08-22T05:40:44.005Z,49.56
2022-08-22T05:43:55.351Z,49.02
2022-08-22T05:47:16.681Z,49.49
2022-08-22T05:50:29.587Z,49.97
2022-08-22T05:53:44.975Z,48.83
2022-08-22T05:56:54.524Z,48.43
2022-08-22T06:00:00.840Z,47.85
2022-08-22T06:03:35.485Z,48.16
2022-08-22T06:06:51.920Z,47.08
2022-08-22T06:10:15.728Z,47.34
2022-08-22T06:13:36.099Z,47.85
2022-08-22T06:16:53.730Z,48.70
2022-08-22T06:20:04.792Z,48.68
2022-08-22T06:23:13.460Z,49.23
2022-08-22T06:26:20.463Z,48.42
2022-08-22T06:29:27.305Z,47.92
2022-08-22T06:32:59.166Z,48.93
2022-08-22T06:36:24.266Z,49.14
2022-08-22T06:39:42.992Z,49.15
2022-08-22T06:42:50.646Z,48.91
2022-08-22T06:45:56.381Z,48.56
2022-08-22T06:49:02.088Z,49.09
2022-08-22T06:52:14.403Z,50.05
2022-08-22T06:55:22.254Z,48.58
2022-08-22T06:58:38.298Z,49.59
2022-08-22T07:02:04.237Z,48.12
2022-08-22T07:05:09.222Z,48.51
2022-08-22T07:08:16.696Z,48.78
2022-08-22T07:11:32.343Z,49.77
2022-08-22T07:14:50.415Z,50.19
2022-08-22T07:18:05.252Z,49.25
2022-08-22T07:21:14.813Z,50.15
2022-08-22T07:24:20.329Z,49.58
2022-08-22T07:27:38.069Z,50.66
2022-08-22T07:31:12.784Z,50.68
2022-08-22T07:35:00.489Z,49.83
2022-08-22T07:38:30.872Z,48.93
2022-08-22T07:41:38.547Z,50.09
2022-08-22T07:44:53.748Z,49.87
2022-08-22T07:48:08.305Z,49.47
2022-08-22T07:51:25.924Z,48.48
2022-08-22T07:54:48.748Z,49.38
2022-08-22T07:57:56.427Z,48.88
2022-08-22T08:01:01.977Z,50.95
2022-08-22T08:04:14.524Z,49.84
2022-08-22T08:07:22.793Z,49.27
2022-08-22T08:10:33.083Z,49.30
2022-08-22T08:13:51.517Z,48.34
2022-08-22T08:17:13.897Z,48.77
2022-08-22T08:20:27.000Z,49.32
2022-08-22T08:23:32.233Z,49.14
2022-08-22T08:26:51.643Z,47.90
2022-08-22T08:30:13.370Z,46.70
2022-08-22T08:33:25.972Z,48.01
2022-08-22T08:36:51.310Z,46.67
2022-08-22T08:40:05.086Z,48.14
2022-08-22T08:43:36.362Z,48.89
2022-08-22T08:47:22.249Z,49.68
2022-08-22T08:51:12.756Z,48.05
2022-08-22T08:54:53.825Z,48.23
2022-08-22T08:58:24.457Z,48.45
2022-08-22T09:01:37.920Z,48.83
2022-08-22T09:04:49.208Z,49.83
2022-08-22T09:08:22.326Z,48.86
2022-08-22T09:11:37.473Z,47.82
2022-08-22T09:15:27.414Z,47.98
2022-08-22T09:18:40.392Z,48.66
2022-08-22T09:22:14.460Z,47.81
2022-08-22T09:25:44.897Z,47.15
2022-08-22T09:29:09.256Z,47.37
2022-08-22T09:32:02.816Z,49.11
2022-08-22T09:35:35.033Z,47.59
2022-08-22T09:38:58.818Z,47.07
2022-08-22T09:42:27.298Z,46.72
2022-08-22T09:45:53.546Z,46.52
2022-08-22T09:49:33.525Z,48.42
2022-08-22T09:52:46.295Z,47.96
2022-08-22T09:56:15.002Z,47.69
2022-08-22T09:59:26.370Z,46.83
2022-08-22T10:02:52.221Z,47.49
2022-08-22T10:06:16.894Z,45.75
2022-08-22T10:09:35.250Z,46.25
2022-08-22T10:12:46.022Z,46.32
2022-08-22T10:16:01.437Z,46.51
2022-08-22T10:19:14.626Z,46.84
2022-08-22T10:22:55.618Z,47.79
2022-08-22T10:26:08.656Z,45.76
2022-08-22T10:29:42.996Z,45.56
2022-08-22T10:33:05.767Z,45.52
2022-08-22T10:36:34.305Z,45.34
2022-08-22T10:39:53.915Z,45.30
2022-08-22T10:43:07.038Z,46.25
2022-08-22T10:46:37.191Z,46.92
2022-08-22T10:50:10.978Z,44.71
2022-08-22T10:53:40.688Z,45.83
2022-08-22T10:57:21.986Z,45.53
2022-08-22T11:01:01.471Z,45.25
2022-08-22T11:04:34.816Z,45.09
2022-08-22T11:08:19.261Z,44.93
2022-08-22T11:11:48.876Z,44.94
2022-08-22T11:15:28.353Z,43.92
2022-08-22T11:19:02.714Z,43.21
2022-08-22T11:22:23.689Z,45.44
2022-08-22T11:26:01.237Z,42.70
2022-08-22T11:29:35.789Z,43.66
2022-08-22T11:33:46.542Z,41.81
2022-08-22T11:36:38.023Z,41.16
2022-08-22T11:40:05.843Z,40.46
2022-08-22T11:43:45.316Z,38.88
2022-08-22T11:47:03.351Z,38.61
2022-08-22T11:50:22.270Z,38.61
2022-08-22T11:53:55.318Z,37.52
2022-08-22T11:57:08.639Z,38.71
2022-08-22T12:00:45.412Z,38.55
2022-08-22T12:04:24.582Z,39.03
2022-08-22T12:07:53.679Z,37.62
2022-08-22T12:11:04.641Z,37.62
2022-08-22T12:14:40.628Z,38.48
2022-08-22T12:18:24.153Z,38.32
2022-08-22T12:21:57.126Z,37.76
2022-08-22T12:25:26.783Z,37.87
2022-08-22T12:29:05.063Z,37.55
2022-08-22T12:32:39.596Z,37.46
2022-08-22T12:36:21.152Z,35.28
2022-08-22T12:39:52.997Z,35.28
2022-08-22T12:43:14.310Z,36.30
2022-08-22T12:46:34.717Z,36.14
2022-08-22T12:50:05.206Z,37.08
2022-08-22T12:53:30.339Z,37.76
2022-08-22T12:56:58.619Z,37.76
2022-08-22T13:00:04.885Z,37.33
2022-08-22T13:03:09.730Z,36.08
2022-08-22T13:06:22.718Z,35.14
2022-08-22T13:09:44.065Z,34.39
2022-08-22T13:12:56.474Z,35.35
2022-08-22T13:16:09.526Z,34.74
2022-08-22T13:19:21.600Z,34.58
2022-08-22T13:22:32.228Z,33.20
2022-08-22T13:25:40.952Z,34.22
2022-08-22T13:28:47.931Z,33.97
2022-08-22T13:31:55.089Z,34.16
2022-08-22T13:35:04.091Z,34.59
2022-08-22T13:38:14.964Z,34.30
2022-08-22T13:41:20.498Z,33.92
2022-08-22T13:44:33.558Z,34.44
2022-08-22T13:47:39.944Z,34.71
2022-08-22T13:50:53.906Z,33.20
2022-08-22T13:54:11.241Z,32.57
2022-08-22T13:57:39.760Z,32.50
2022-08-22T14:01:11.717Z,32.72
2022-08-22T14:04:39.622Z,30.99
2022-08-22T14:08:12.703Z,31.80
2022-08-22T14:14:08.310Z,31.11
2022-08-22T14:17:13.774Z,30.52
2022-08-22T14:20:32.520Z,31.45
2022-08-22T14:23:42.282Z,31.29
2022-08-22T14:26:52.600Z,31.29
2022-08-22T14:30:08.332Z,31.70
2022-08-22T14:33:34.228Z,30.59
2022-08-22T14:36:44.475Z,28.85
2022-08-22T14:40:25.527Z,29.09
2022-08-22T14:43:45.944Z,29.02
2022-08-22T14:47:03.833Z,29.37
2022-08-22T14:50:09.365Z,29.76
2022-08-22T14:53:44.785Z,30.33
2022-08-22T14:56:50.471Z,29.76
2022-08-22T15:00:03.999Z,29.59
2022-08-22T15:03:14.820Z,30.42
2022-08-22T15:06:29.302Z,30.50
2022-08-22T15:09:57.144Z,31.25
2022-08-22T15:13:09.786Z,30.59
2022-08-22T15:16:15.862Z,31.39
2022-08-22T15:19:44.471Z,32.05
2022-08-22T15:22:52.248Z,32.67
2022-08-22T15:25:58.054Z,32.89
2022-08-22T15:29:25.518Z,32.89
2022-08-22T15:32:41.802Z,33.09
2022-08-22T15:35:46.783Z,33.62
2022-08-22T15:38:59.156Z,34.15
2022-08-22T15:42:06.104Z,34.15
2022-08-22T15:45:12.713Z,34.56
2022-08-22T15:48:26.012Z,35.18
2022-08-22T15:51:53.562Z,35.16
2022-08-22T15:55:13.013Z,35.71
2022-08-22T15:58:28.532Z,35.86
2022-08-22T16:01:37.907Z,35.36
2022-08-22T16:04:57.842Z,35.92
2022-08-22T16:08:21.525Z,36.01
2022-08-22T16:11:38.554Z,36.20
2022-08-22T16:14:56.913Z,36.24
2022-08-22T16:18:03.200Z,36.82
2022-08-22T16:21:09.237Z,36.85
2022-08-22T16:24:19.737Z,36.69
2022-08-22T16:27:36.253Z,36.85
2022-08-22T16:30:48.730Z,37.38
2022-08-22T16:33:56.098Z,37.83
2022-08-22T16:37:28.591Z,38.03
2022-08-22T16:40:38.990Z,37.96
2022-08-22T16:43:52.655Z,38.18
2022-08-22T16:46:55.191Z,38.30
2022-08-22T16:50:12.006Z,38.42
2022-08-22T16:53:46.159Z,38.82
2022-08-22T16:56:57.469Z,38.77
2022-08-22T17:00:22.864Z,38.46
2022-08-22T17:03:57.772Z,38.61
2022-08-22T17:07:32.144Z,38.01
2022-08-22T17:11:10.935Z,38.14
2022-08-22T17:14:48.737Z,38.30
2022-08-22T17:18:24.287Z,38.47
2022-08-22T17:21:51.665Z,38.85
2022-08-22T17:24:57.253Z,39.14
2022-08-22T17:28:07.796Z,39.23
2022-08-22T17:31:26.842Z,39.44
2022-08-22T17:35:12.771Z,39.96
2022-08-22T17:38:53.769Z,39.71
2022-08-22T17:42:29.055Z,39.77
2022-08-22T17:45:36.699Z,39.70
2022-08-22T17:49:09.233Z,39.59
2022-08-22T17:52:25.610Z,39.58
2022-08-22T17:55:37.708Z,38.84
2022-08-22T17:58:48.606Z,38.72
2022-08-22T18:02:18.218Z,38.45
2022-08-22T18:05:34.442Z,38.49
2022-08-22T18:12:05.651Z,37.90
2022-08-22T18:15:23.360Z,37.46
2022-08-22T18:18:42.421Z,36.92
2022-08-22T18:22:03.994Z,36.93
2022-08-22T18:25:36.461Z,37.05
2022-08-22T18:28:55.093Z,36.76
2022-08-22T18:32:25.473Z,36.41
2022-08-22T18:35:48.590Z,36.19
2022-08-22T18:39:10.233Z,36.49
2022-08-22T18:42:27.793Z,36.61
2022-08-22T18:45:44.185Z,36.34
2022-08-22T18:49:14.113Z,36.45
2022-08-22T18:52:25.278Z,36.60
2022-08-22T18:55:35.517Z,36.42
2022-08-22T18:59:06.426Z,36.53
2022-08-22T19:02:36.522Z,36.55
2022-08-22T19:06:21.020Z,36.56
2022-08-22T19:10:02.151Z,36.55
2022-08-22T19:13:48.797Z,36.58
2022-08-22T19:17:20.558Z,36.62
2022-08-22T19:21:03.713Z,36.55
2022-08-22T19:24:10.271Z,36.71
2022-08-22T19:27:37.851Z,36.71
2022-08-22T19:31:05.765Z,36.50
2022-08-22T19:34:46.939Z,36.56
2022-08-22T19:40:25.537Z,36.98
2022-08-22T19:43:53.398Z,36.45
2022-08-22T19:47:01.367Z,36.62
2022-08-22T19:50:13.670Z,36.74
2022-08-22T19:53:48.351Z,36.72
2022-08-22T19:57:20.138Z,36.89
2022-08-22T20:00:38.893Z,36.85
2022-08-22T20:04:11.402Z,37.11
2022-08-22T20:07:42.485Z,36.85
2022-08-22T20:11:35.083Z,36.82
2022-08-22T20:14:46.443Z,37.06
2022-08-22T20:21:14.246Z,36.88
2022-08-22T20:24:22.015Z,37.17
2022-08-22T20:27:34.936Z,37.39
2022-08-22T20:30:54.502Z,36.96
2022-08-22T20:34:02.212Z,37.02
2022-08-22T20:37:29.621Z,37.17
2022-08-22T20:40:57.084Z,37.03
2022-08-22T20:44:11.426Z,37.19
2022-08-22T20:47:36.186Z,37.08
2022-08-22T20:50:38.091Z,37.07
2022-08-22T20:53:43.764Z,37.44
2022-08-22T20:56:56.907Z,37.59
2022-08-22T21:00:08.387Z,37.42
2022-08-22T21:03:24.273Z,37.03
2022-08-22T21:06:32.404Z,36.68
2022-08-22T21:09:55.807Z,37.17
2022-08-22T21:13:35.193Z,36.61
2022-08-22T21:16:45.977Z,36.92
2022-08-22T21:19:44.347Z,36.26
2022-08-22T21:22:40.653Z,36.45
2022-08-22T21:25:39.448Z,36.65
2022-08-22T21:28:51.956Z,36.53
2022-08-22T21:32:07.484Z,36.44
2022-08-22T21:35:13.446Z,36.63
2022-08-22T21:38:18.715Z,36.62
2022-08-22T21:41:23.975Z,36.03
2022-08-22T21:44:51.947Z,35.98
2022-08-22T21:47:57.209Z,35.86
2022-08-22T21:51:03.929Z,35.91
2022-08-22T21:54:44.642Z,35.95
2022-08-22T21:57:49.582Z,36.08
2022-08-22T22:01:08.646Z,36.54
2022-08-22T22:04:15.909Z,36.75
2022-08-22T22:07:22.161Z,36.70
2022-08-22T22:10:32.001Z,36.71
2022-08-22T22:13:37.165Z,36.44
2022-08-22T22:16:42.464Z,36.77
2022-08-22T22:19:48.352Z,36.64
2022-08-22T22:22:54.073Z,36.58
2022-08-22T22:26:00.860Z,36.92
2022-08-22T22:29:06.660Z,37.15
2022-08-22T22:32:13.550Z,37.70
2022-08-22T22:35:20.641Z,37.67
2022-08-22T22:38:26.128Z,37.39
2022-08-22T22:41:32.373Z,38.22
2022-08-22T22:44:38.200Z,38.12
2022-08-22T22:47:46.085Z,38.28
2022-08-22T22:50:51.354Z,38.17
2022-08-22T22:53:57.549Z,38.12
2022-08-22T22:57:03.207Z,38.19
2022-08-22T23:00:09.659Z,38.60
2022-08-22T23:03:16.255Z,39.01
2022-08-22T23:06:29.065Z,39.18
2022-08-22T23:09:38.551Z,38.20
2022-08-22T23:12:41.370Z,38.42
2022-08-22T23:15:47.888Z,38.10
2022-08-22T23:18:54.621Z,38.06
2022-08-22T23:22:00.917Z,38.50
2022-08-22T23:25:07.411Z,38.68
2022-08-22T23:28:13.802Z,38.80
2022-08-22T23:31:34.959Z,38.88
2022-08-22T23:34:46.912Z,38.65
2022-08-22T23:37:52.424Z,38.57
2022-08-22T23:40:58.499Z,38.43
2022-08-22T23:44:06.013Z,38.31
2022-08-22T23:47:11.430Z,38.25
2022-08-22T23:50:17.008Z,37.84
2022-08-22T23:53:22.202Z,38.11
2022-08-22T23:56:31.185Z,37.73
2022-08-22T23:59:46.513Z,37.62
